createdAt,value
2019-02-25T00:01:15.408Z,99759.09
2019-02-25T00:03:49.227Z,99764.64
2019-02-25T00:06:24.013Z,99765.09
2019-02-25T00:08:58.573Z,99770.24
2019-02-25T00:11:32.674Z,99766.31
2019-02-25T00:14:06.635Z,99771.35
2019-02-25T00:16:59.916Z,99769.36
2019-02-25T00:19:33.739Z,99774.97
2019-02-25T00:22:07.679Z,99780.40
2019-02-25T00:24:41.408Z,99769.11
2019-02-25T00:27:16.521Z,99772.03
2019-02-25T00:29:50.169Z,99769.41
2019-02-25T00:32:23.879Z,99773.49
2019-02-25T00:34:57.865Z,99768.98
2019-02-25T00:37:31.464Z,99767.52
2019-02-25T00:40:05.809Z,99778.13
2019-02-25T00:42:39.641Z,99771.59
2019-02-25T00:45:15.607Z,99774.14
2019-02-25T00:47:49.831Z,99769.66
2019-02-25T00:50:24.607Z,99767.28
2019-02-25T00:52:58.454Z,99772.13
2019-02-25T00:55:33.313Z,99770.08
2019-02-25T00:58:07.209Z,99770.59
2019-02-25T01:00:41.436Z,99772.44
2019-02-25T01:03:17.489Z,99774.61
2019-02-25T01:05:52.226Z,99776.56
2019-02-25T01:08:26.135Z,99773.02
2019-02-25T01:11:00.010Z,99777.09
2019-02-25T01:13:34.769Z,99779.56
2019-02-25T01:16:08.940Z,99789.38
2019-02-25T01:18:42.749Z,99782.26
2019-02-25T01:21:17.099Z,99779.84
2019-02-25T01:23:51.120Z,99781.91
2019-02-25T01:26:24.932Z,99786.31
2019-02-25T01:28:59.156Z,99788.98
2019-02-25T01:31:33.687Z,99784.73
2019-02-25T01:34:07.544Z,99789.46
2019-02-25T01:36:42.468Z,99792.72
2019-02-25T01:39:16.259Z,99795.13
2019-02-25T01:41:50.200Z,99795.48
2019-02-25T01:44:24.246Z,99795.37
2019-02-25T01:47:00.059Z,99790.64
2019-02-25T01:49:34.402Z,99793.33
2019-02-25T01:52:08.322Z,99802.40
2019-02-25T01:54:42.384Z,99793.17
2019-02-25T01:57:16.641Z,99795.88
2019-02-25T01:59:50.537Z,99792.86
2019-02-25T02:02:24.584Z,99791.78
2019-02-25T02:04:58.173Z,99784.83
2019-02-25T02:07:32.048Z,99803.39
2019-02-25T02:10:06.311Z,99795.97
2019-02-25T02:12:39.988Z,99796.28
2019-02-25T02:15:18.950Z,99794.63
2019-02-25T02:17:52.926Z,99793.39
2019-02-25T02:20:26.624Z,99789.35
2019-02-25T02:23:00.500Z,99794.61
2019-02-25T02:28:11.669Z,99790.31
2019-02-25T02:30:45.306Z,99790.11
2019-02-25T02:33:20.239Z,99789.72
2019-02-25T02:35:53.854Z,99795.47
2019-02-25T02:38:29.206Z,99790.39
2019-02-25T02:41:03.649Z,99790.06
2019-02-25T02:43:37.340Z,99782.92
2019-02-25T02:46:24.494Z,99783.66
2019-02-25T02:49:04.845Z,99781.33
2019-02-25T02:51:38.215Z,99783.50
2019-02-25T02:54:11.948Z,99787.64
2019-02-25T02:56:46.960Z,99784.11
2019-02-25T02:59:20.547Z,99779.02
2019-02-25T03:01:54.642Z,99771.44
2019-02-25T03:04:28.395Z,99773.81
2019-02-25T03:07:03.439Z,99774.54
2019-02-25T03:09:36.635Z,99769.77
2019-02-25T03:12:10.344Z,99767.48
2019-02-25T03:14:44.058Z,99768.83
2019-02-25T03:17:17.701Z,99760.88
2019-02-25T03:19:51.325Z,99750.12
2019-02-25T03:22:25.020Z,99749.80
2019-02-25T03:24:59.067Z,99749.16
2019-02-25T03:27:33.269Z,99745.47
2019-02-25T03:30:14.580Z,99742.23
2019-02-25T03:32:48.395Z,99749.75
2019-02-25T03:35:22.023Z,99743.88
2019-02-25T03:37:55.591Z,99734.32
2019-02-25T03:40:30.297Z,99725.93
2019-02-25T03:43:04.185Z,99736.25
2019-02-25T03:45:38.073Z,99722.09
2019-02-25T03:48:11.726Z,99719.35
2019-02-25T03:50:45.383Z,99716.50
2019-02-25T03:53:20.428Z,99718.91
2019-02-25T03:55:55.502Z,99702.69
2019-02-25T03:58:29.213Z,99708.30
2019-02-25T04:01:02.887Z,99705.79
2019-02-25T04:03:36.754Z,99701.55
2019-02-25T04:06:10.638Z,99704.41
2019-02-25T04:08:44.583Z,99696.78
2019-02-25T04:11:18.389Z,99691.89
2019-02-25T04:13:52.025Z,99692.02
2019-02-25T04:16:27.247Z,99683.22
2019-02-25T04:19:02.276Z,99672.23
2019-02-25T04:21:36.122Z,99676.39
2019-02-25T04:24:10.092Z,99672.21
2019-02-25T04:26:43.765Z,99671.42
2019-02-25T04:29:17.376Z,99660.24
2019-02-25T04:31:51.766Z,99659.66
2019-02-25T04:34:25.428Z,99665.08
2019-02-25T04:37:00.528Z,99656.12
2019-02-25T04:39:34.862Z,99662.14
2019-02-25T04:42:08.473Z,99658.09
2019-02-25T04:44:42.190Z,99659.05
2019-02-25T04:47:16.515Z,99646.59
2019-02-25T04:49:50.482Z,99649.59
2019-02-25T04:52:24.230Z,99639.75
2019-02-25T04:54:57.944Z,99644.81
2019-02-25T04:57:31.514Z,99635.84
2019-02-25T05:00:06.686Z,99633.91
2019-02-25T05:02:40.413Z,99636.63
2019-02-25T05:05:14.081Z,99645.88
2019-02-25T05:07:48.124Z,99627.59
2019-02-25T05:10:22.015Z,99639.84
2019-02-25T05:12:55.738Z,99625.93
2019-02-25T05:15:29.851Z,99609.45
2019-02-25T05:18:03.910Z,99628.93
2019-02-25T05:20:37.340Z,99620.05
2019-02-25T05:23:11.161Z,99619.31
2019-02-25T05:25:44.658Z,99630.30
2019-02-25T05:28:20.085Z,99615.85
2019-02-25T05:30:54.037Z,99610.80
2019-02-25T05:33:27.677Z,99605.52
2019-02-25T05:36:01.829Z,99605.41
2019-02-25T05:38:35.516Z,99597.19
2019-02-25T05:41:09.782Z,99613.15
2019-02-25T05:43:43.507Z,99608.78
2019-02-25T05:46:17.387Z,99592.89
2019-02-25T05:48:51.250Z,99596.98
2019-02-25T05:51:24.862Z,99589.39
2019-02-25T05:53:59.030Z,99591.38
2019-02-25T05:56:32.714Z,99582.72
2019-02-25T05:59:06.405Z,99582.10
2019-02-25T06:01:40.069Z,99571.50
2019-02-25T06:04:13.862Z,99560.34
2019-02-25T06:06:49.154Z,99569.66
2019-02-25T06:09:23.288Z,99560.52
2019-02-25T06:11:58.743Z,99559.16
2019-02-25T06:14:32.490Z,99551.25
2019-02-25T06:17:06.198Z,99552.34
2019-02-25T06:19:39.806Z,99541.78
2019-02-25T06:22:14.934Z,99552.77
2019-02-25T06:24:48.877Z,99547.46
2019-02-25T06:27:43.413Z,99542.24
2019-02-25T06:30:24.688Z,99540.14
2019-02-25T06:32:58.493Z,99544.27
2019-02-25T06:35:32.563Z,99539.11
2019-02-25T06:38:06.469Z,99539.02
2019-02-25T06:40:40.336Z,99535.31
2019-02-25T06:43:13.922Z,99530.13
2019-02-25T06:45:47.303Z,99535.78
2019-02-25T06:48:21.258Z,99538.92
2019-02-25T06:50:54.961Z,99531.17
2019-02-25T06:53:28.830Z,99522.53
2019-02-25T06:56:02.343Z,99541.34
2019-02-25T06:58:36.491Z,99533.38
2019-02-25T07:01:11.286Z,99521.48
2019-02-25T07:03:45.984Z,99520.83
2019-02-25T07:06:21.028Z,99517.41
2019-02-25T07:08:54.807Z,99532.08
2019-02-25T07:11:28.728Z,99527.34
2019-02-25T07:14:03.711Z,99519.24
2019-02-25T07:16:38.175Z,99521.42
2019-02-25T07:19:11.486Z,99514.56
2019-02-25T07:21:45.353Z,99518.41
2019-02-25T07:24:19.034Z,99507.29
2019-02-25T07:26:52.683Z,99508.41
2019-02-25T07:29:25.978Z,99504.65
2019-02-25T07:32:01.529Z,99512.59
2019-02-25T07:34:35.397Z,99506.06
2019-02-25T07:37:09.779Z,99504.41
2019-02-25T07:39:43.341Z,99502.38
2019-02-25T07:42:16.948Z,99512.87
2019-02-25T07:44:50.549Z,99520.20
2019-02-25T07:47:25.668Z,99509.64
2019-02-25T07:49:59.565Z,99505.91
2019-02-25T07:52:33.349Z,99508.32
2019-02-25T07:55:08.803Z,99514.99
2019-02-25T07:57:42.437Z,99505.17
2019-02-25T08:00:17.935Z,99513.80
2019-02-25T08:02:51.502Z,99513.09
2019-02-25T08:05:25.904Z,99516.42
2019-02-25T08:07:59.426Z,99515.86
2019-02-25T08:10:33.402Z,99514.09
2019-02-25T08:13:07.733Z,99507.75
2019-02-25T08:15:41.293Z,99501.02
2019-02-25T08:18:15.124Z,99505.30
2019-02-25T08:21:10.242Z,99505.94
2019-02-25T08:23:43.908Z,99508.25
2019-02-25T08:26:17.749Z,99511.91
2019-02-25T08:28:51.636Z,99502.45
2019-02-25T08:31:25.587Z,99501.42
2019-02-25T08:33:59.484Z,99492.95
2019-02-25T08:37:04.758Z,99500.91
2019-02-25T08:39:38.004Z,99504.70
2019-02-25T08:42:12.590Z,99494.39
2019-02-25T08:44:46.646Z,99501.20
2019-02-25T08:47:20.398Z,99498.69
2019-02-25T08:49:54.322Z,99501.81
2019-02-25T08:52:27.913Z,99500.69
2019-02-25T08:55:23.431Z,99496.64
2019-02-25T08:57:57.539Z,99498.52
2019-02-25T09:00:31.614Z,99495.10
2019-02-25T09:03:05.681Z,99493.69
2019-02-25T09:05:39.669Z,99502.72
2019-02-25T09:08:13.935Z,99497.09
2019-02-25T09:10:48.823Z,99502.23
2019-02-25T09:13:23.862Z,99501.83
2019-02-25T09:15:58.415Z,99498.78
2019-02-25T09:18:32.536Z,99507.18
2019-02-25T09:21:08.045Z,99511.50
2019-02-25T09:23:41.462Z,99513.11
2019-02-25T09:26:15.275Z,99510.67
2019-02-25T09:28:49.097Z,99511.30
2019-02-25T09:31:23.406Z,99517.89
2019-02-25T09:33:57.071Z,99519.78
2019-02-25T09:36:31.085Z,99527.73
2019-02-25T09:39:05.190Z,99527.08
2019-02-25T09:41:39.205Z,99531.06
2019-02-25T09:44:14.458Z,99526.59
2019-02-25T09:46:48.291Z,99536.45
2019-02-25T09:49:22.434Z,99538.06
2019-02-25T09:52:02.838Z,99537.27
2019-02-25T09:54:37.516Z,99537.53
2019-02-25T09:57:12.192Z,99545.28
2019-02-25T10:00:23.790Z,99549.94
2019-02-25T10:02:57.879Z,99546.20
2019-02-25T10:05:32.155Z,99549.81
2019-02-25T10:08:06.363Z,99554.02
2019-02-25T10:10:41.993Z,99550.72
2019-02-25T10:13:16.671Z,99553.58
2019-02-25T10:15:50.936Z,99551.84
2019-02-25T10:18:29.058Z,99561.80
2019-02-25T10:21:09.429Z,99562.62
2019-02-25T10:23:46.073Z,99558.52
2019-02-25T10:26:25.530Z,99558.51
2019-02-25T10:29:01.350Z,99560.84
2019-02-25T10:31:38.124Z,99557.91
2019-02-25T10:34:17.960Z,99560.16
2019-02-25T10:36:53.011Z,99558.30
2019-02-25T10:39:28.049Z,99552.98
2019-02-25T10:42:22.987Z,99564.64
2019-02-25T10:44:58.790Z,99564.42
2019-02-25T10:47:36.419Z,99573.30
2019-02-25T10:50:13.806Z,99569.10
2019-02-25T10:53:03.479Z,99572.21
2019-02-25T10:55:48.817Z,99571.33
2019-02-25T10:58:24.737Z,99569.56
2019-02-25T11:01:02.313Z,99576.70
2019-02-25T11:03:36.863Z,99578.16
2019-02-25T11:06:26.862Z,99574.99
2019-02-25T11:08:59.023Z,99573.61
2019-02-25T11:11:34.454Z,99573.19
2019-02-25T11:14:11.020Z,99576.13
2019-02-25T11:16:48.056Z,99574.35
2019-02-25T11:19:28.641Z,99570.62
2019-02-25T11:22:00.657Z,99573.63
2019-02-25T11:24:35.853Z,99566.95
2019-02-25T11:27:14.206Z,99565.13
2019-02-25T11:29:48.801Z,99569.19
2019-02-25T11:32:23.694Z,99565.64
2019-02-25T11:35:01.474Z,99569.67
2019-02-25T11:37:39.500Z,99565.74
2019-02-25T11:40:28.945Z,99565.74
2019-02-25T11:43:13.060Z,99563.36
2019-02-25T11:45:47.385Z,99566.91
2019-02-25T11:48:24.511Z,99566.63
2019-02-25T11:51:01.066Z,99565.30
2019-02-25T11:53:40.001Z,99561.53
2019-02-25T11:56:15.571Z,99557.67
2019-02-25T11:58:52.264Z,99555.98
2019-02-25T12:01:26.631Z,99555.44
2019-02-25T12:04:02.267Z,99553.45
2019-02-25T12:06:42.992Z,99556.34
2019-02-25T12:09:20.753Z,99549.91
2019-02-25T12:11:58.475Z,99554.88
2019-02-25T12:14:35.819Z,99558.05
2019-02-25T12:17:11.072Z,99558.34
2019-02-25T12:19:46.030Z,99553.89
2019-02-25T12:22:22.327Z,99562.63
2019-02-25T12:24:56.987Z,99558.84
2019-02-25T12:27:31.839Z,99552.10
2019-02-25T12:30:07.493Z,99554.72
2019-02-25T12:32:44.352Z,99555.84
2019-02-25T12:35:26.610Z,99557.93
2019-02-25T12:38:03.095Z,99557.58
2019-02-25T12:40:38.367Z,99561.46
2019-02-25T12:43:13.381Z,99561.68
2019-02-25T12:45:48.782Z,99558.48
2019-02-25T12:48:23.381Z,99558.30
2019-02-25T12:50:59.473Z,99559.20
2019-02-25T12:53:34.374Z,99560.36
2019-02-25T12:56:14.656Z,99565.92
2019-02-25T12:58:49.420Z,99561.80
2019-02-25T13:01:24.830Z,99557.14
2019-02-25T13:04:02.235Z,99557.13
2019-02-25T13:06:38.823Z,99556.47
2019-02-25T13:09:15.814Z,99561.54
2019-02-25T13:11:51.184Z,99561.84
2019-02-25T13:14:25.497Z,99554.83
2019-02-25T13:17:04.156Z,99554.08
2019-02-25T13:19:41.754Z,99557.23
2019-02-25T13:22:19.480Z,99558.82
2019-02-25T13:24:55.056Z,99557.78
2019-02-25T13:27:32.157Z,99559.41
2019-02-25T13:30:08.710Z,99556.63
2019-02-25T13:32:46.402Z,99556.78
2019-02-25T13:35:20.956Z,99551.85
2019-02-25T13:37:56.096Z,99555.44
2019-02-25T13:40:30.504Z,99559.34
2019-02-25T13:43:05.332Z,99553.79
2019-02-25T13:45:39.763Z,99559.01
2019-02-25T13:48:14.138Z,99560.69
2019-02-25T13:50:48.001Z,99560.30
2019-02-25T13:53:22.606Z,99551.18
2019-02-25T13:55:58.601Z,99552.88
2019-02-25T13:58:32.506Z,99555.08
2019-02-25T14:01:06.622Z,99553.50
2019-02-25T14:03:40.678Z,99549.78
2019-02-25T14:06:17.743Z,99550.36
2019-02-25T14:08:51.603Z,99552.95
2019-02-25T14:11:25.504Z,99543.93
2019-02-25T14:14:00.183Z,99544.80
2019-02-25T14:16:36.322Z,99546.33
2019-02-25T14:19:10.291Z,99556.45
2019-02-25T14:21:44.373Z,99548.83
2019-02-25T14:24:20.801Z,99547.20
2019-02-25T14:26:55.072Z,99549.10
2019-02-25T14:29:28.901Z,99546.64
2019-02-25T14:32:03.542Z,99548.64
2019-02-25T14:34:37.412Z,99546.52
2019-02-25T14:37:10.759Z,99545.90
2019-02-25T14:39:49.409Z,99545.88
2019-02-25T14:42:44.497Z,99548.59
2019-02-25T14:45:21.371Z,99542.80
2019-02-25T14:47:57.510Z,99534.50
2019-02-25T14:50:28.300Z,99533.41
2019-02-25T14:53:03.919Z,99534.75
2019-02-25T14:55:40.778Z,99535.64
2019-02-25T14:58:15.053Z,99528.61
2019-02-25T15:00:49.737Z,99526.65
2019-02-25T15:03:26.944Z,99531.69
2019-02-25T15:06:00.771Z,99530.11
2019-02-25T15:08:34.687Z,99528.86
2019-02-25T15:11:09.244Z,99533.20
2019-02-25T15:13:44.930Z,99536.80
2019-02-25T15:16:18.816Z,99544.47
2019-02-25T15:18:52.800Z,99537.23
2019-02-25T15:21:26.802Z,99544.48
2019-02-25T15:24:04.126Z,99537.66
2019-02-25T15:26:42.826Z,99534.33
2019-02-25T15:29:13.979Z,99538.53
2019-02-25T15:31:50.469Z,99540.23
2019-02-25T15:34:24.091Z,99538.88
2019-02-25T15:37:00.721Z,99536.00
2019-02-25T15:39:34.459Z,99538.72
2019-02-25T15:42:08.673Z,99537.69
2019-02-25T15:44:44.531Z,99543.58
2019-02-25T15:47:17.816Z,99540.31
2019-02-25T15:49:55.361Z,99546.26
2019-02-25T15:52:30.836Z,99546.26
2019-02-25T15:55:03.977Z,99548.56
2019-02-25T15:57:39.963Z,99543.78
2019-02-25T16:00:23.269Z,99542.80
2019-02-25T16:03:03.838Z,99543.31
2019-02-25T16:05:38.761Z,99538.88
2019-02-25T16:08:19.033Z,99536.36
2019-02-25T16:10:55.645Z,99546.45
2019-02-25T16:13:26.806Z,99547.58
2019-02-25T16:16:01.113Z,99548.39
2019-02-25T16:18:35.008Z,99553.34
2019-02-25T16:21:11.231Z,99554.14
2019-02-25T16:23:45.386Z,99555.36
2019-02-25T16:26:20.089Z,99554.95
2019-02-25T16:28:55.168Z,99566.42
2019-02-25T16:31:30.909Z,99580.28
2019-02-25T16:34:04.329Z,99575.99
2019-02-25T16:36:37.917Z,99570.62
2019-02-25T16:39:12.363Z,99577.31
2019-02-25T16:41:47.447Z,99587.36
2019-02-25T16:44:21.415Z,99584.60
2019-02-25T16:47:15.997Z,99590.92
2019-02-25T16:49:50.328Z,99585.56
2019-02-25T16:52:24.517Z,99600.56
2019-02-25T16:55:20.083Z,99603.19
2019-02-25T16:57:53.827Z,99597.91
2019-02-25T17:00:29.962Z,99600.39
2019-02-25T17:03:05.997Z,99606.17
2019-02-25T17:05:40.285Z,99603.41
2019-02-25T17:08:34.446Z,99606.81
2019-02-25T17:11:10.508Z,99608.59
2019-02-25T17:13:43.717Z,99609.70
2019-02-25T17:16:18.416Z,99615.27
2019-02-25T17:18:51.888Z,99625.30
2019-02-25T17:21:26.597Z,99616.22
2019-02-25T17:24:01.175Z,99620.55
2019-02-25T17:26:35.233Z,99630.86
2019-02-25T17:29:09.079Z,99623.42
2019-02-25T17:31:45.032Z,99633.66
2019-02-25T17:34:19.171Z,99632.30
2019-02-25T17:36:54.613Z,99629.73
2019-02-25T17:39:29.463Z,99631.27
2019-02-25T17:42:06.113Z,99635.58
2019-02-25T17:44:39.706Z,99642.36
2019-02-25T17:47:24.092Z,99646.31
2019-02-25T17:49:51.223Z,99644.81
2019-02-25T17:52:25.025Z,99643.16
2019-02-25T17:55:01.502Z,99650.69
2019-02-25T17:57:55.982Z,99649.96
2019-02-25T18:00:34.344Z,99658.84
2019-02-25T18:03:08.230Z,99653.86
2019-02-25T18:05:43.214Z,99654.56
2019-02-25T18:08:17.549Z,99661.17
2019-02-25T18:10:52.218Z,99664.39
2019-02-25T18:13:28.127Z,99666.10
2019-02-25T18:16:05.296Z,99666.13
2019-02-25T18:18:41.205Z,99659.27
2019-02-25T18:21:14.076Z,99669.23
2019-02-25T18:23:49.415Z,99677.05
2019-02-25T18:26:23.287Z,99684.88
2019-02-25T18:28:57.982Z,99682.55
2019-02-25T18:31:32.564Z,99686.63
2019-02-25T18:34:06.970Z,99682.73
2019-02-25T18:36:41.843Z,99685.61
2019-02-25T18:39:16.747Z,99688.48
2019-02-25T18:41:52.591Z,99690.74
2019-02-25T18:44:27.826Z,99695.11
2019-02-25T18:47:02.563Z,99693.94
2019-02-25T18:49:37.118Z,99700.89
2019-02-25T18:52:10.979Z,99701.95
2019-02-25T18:54:47.409Z,99698.27
2019-02-25T18:57:41.711Z,99696.36
2019-02-25T19:00:33.461Z,99709.28
2019-02-25T19:03:07.759Z,99710.18
2019-02-25T19:05:45.319Z,99715.58
2019-02-25T19:08:24.109Z,99715.03
2019-02-25T19:10:57.844Z,99713.56
2019-02-25T19:13:32.075Z,99713.79
2019-02-25T19:16:06.193Z,99717.27
2019-02-25T19:18:41.392Z,99725.03
2019-02-25T19:21:16.449Z,99725.69
2019-02-25T19:23:51.838Z,99724.80
2019-02-25T19:26:25.959Z,99724.77
2019-02-25T19:29:01.630Z,99723.42
2019-02-25T19:31:35.771Z,99726.63
2019-02-25T19:34:10.531Z,99715.43
2019-02-25T19:36:44.410Z,99723.23
2019-02-25T19:39:19.781Z,99722.18
2019-02-25T19:41:53.820Z,99728.86
2019-02-25T19:44:29.797Z,99732.78
2019-02-25T19:47:23.780Z,99737.95
2019-02-25T19:49:59.134Z,99736.91
2019-02-25T19:52:34.712Z,99740.98
2019-02-25T19:55:13.051Z,99750.47
2019-02-25T19:57:47.278Z,99749.06
2019-02-25T20:00:27.514Z,99751.05
2019-02-25T20:03:05.905Z,99755.23
2019-02-25T20:05:41.183Z,99756.22
2019-02-25T20:08:12.414Z,99760.36
2019-02-25T20:10:46.024Z,99765.47
2019-02-25T20:13:22.018Z,99759.37
2019-02-25T20:15:55.713Z,99770.55
2019-02-25T20:18:30.741Z,99779.11
2019-02-25T20:21:05.758Z,99783.30
2019-02-25T20:23:39.276Z,99794.86
2019-02-25T20:26:13.459Z,99793.76
2019-02-25T20:28:48.742Z,99799.07
2019-02-25T20:31:22.930Z,99808.03
2019-02-25T20:33:57.374Z,99811.47
2019-02-25T20:36:32.693Z,99824.02
2019-02-25T20:39:07.034Z,99829.81
2019-02-25T20:41:40.777Z,99834.80
2019-02-25T20:44:15.920Z,99842.52
2019-02-25T20:46:52.656Z,99854.06
2019-02-25T20:49:26.385Z,99853.34
2019-02-25T20:52:01.163Z,99860.89
2019-02-25T20:54:37.981Z,99860.41
2019-02-25T20:57:10.095Z,99855.56
2019-02-25T20:59:44.220Z,99870.28
2019-02-25T21:02:18.853Z,99874.57
2019-02-25T21:04:52.821Z,99872.14
2019-02-25T21:07:27.600Z,99877.25
2019-02-25T21:10:03.387Z,99882.98
2019-02-25T21:12:36.430Z,99887.57
2019-02-25T21:15:20.862Z,99892.29
2019-02-25T21:17:54.997Z,99895.66
2019-02-25T21:20:31.251Z,99897.21
2019-02-25T21:23:05.941Z,99902.86
2019-02-25T21:25:38.627Z,99898.16
2019-02-25T21:28:12.588Z,99905.73
2019-02-25T21:30:48.004Z,99909.59
2019-02-25T21:33:24.946Z,99908.22
2019-02-25T21:35:57.618Z,99915.03
2019-02-25T21:38:32.515Z,99915.86
2019-02-25T21:41:07.442Z,99914.20
2019-02-25T21:43:43.343Z,99920.89
2019-02-25T21:46:17.825Z,99915.08
2019-02-25T21:48:54.864Z,99920.22
2019-02-25T21:51:30.333Z,99925.03
2019-02-25T21:54:02.331Z,99926.05
2019-02-25T21:56:36.701Z,99927.71
2019-02-25T21:59:10.517Z,99934.52
2019-02-25T22:02:04.103Z,99934.77
2019-02-25T22:04:40.399Z,99933.74
2019-02-25T22:07:16.914Z,99940.50
2019-02-25T22:09:47.139Z,99945.70
2019-02-25T22:12:20.777Z,99949.75
2019-02-25T22:14:54.589Z,99950.13
2019-02-25T22:17:28.183Z,99952.55
2019-02-25T22:20:04.815Z,99956.94
2019-02-25T22:22:37.725Z,99956.94
2019-02-25T22:25:23.064Z,99962.00
2019-02-25T22:27:58.907Z,99964.88
2019-02-25T22:30:32.024Z,99964.18
2019-02-25T22:33:07.876Z,99967.70
2019-02-25T22:35:42.487Z,99976.48
2019-02-25T22:38:17.853Z,99979.64
2019-02-25T22:40:53.594Z,99986.98
2019-02-25T22:43:27.234Z,99990.77
2019-02-25T22:46:02.591Z,99993.22
2019-02-25T22:48:37.464Z,99993.36
2019-02-25T22:51:10.851Z,100005.44
2019-02-25T22:53:44.552Z,100004.49
2019-02-25T22:56:18.403Z,100012.58
2019-02-25T22:58:53.969Z,100009.89
2019-02-25T23:01:27.537Z,100018.25
2019-02-25T23:04:01.616Z,100024.20
2019-02-25T23:06:39.581Z,100027.84
2019-02-25T23:09:14.112Z,100036.64
2019-02-25T23:11:46.081Z,100045.08
2019-02-25T23:14:20.519Z,100054.73
2019-02-25T23:16:55.679Z,100061.52
2019-02-25T23:19:29.766Z,100063.81
2019-02-25T23:22:03.506Z,100072.53
2019-02-25T23:24:39.820Z,100073.55
2019-02-25T23:27:13.050Z,100081.66
2019-02-25T23:29:48.315Z,100089.27
2019-02-25T23:32:21.755Z,100090.41
2019-02-25T23:34:57.044Z,100092.66
2019-02-25T23:37:30.632Z,100099.21
2019-02-25T23:40:09.699Z,100111.71
2019-02-25T23:42:44.338Z,100120.75
2019-02-25T23:45:20.453Z,100118.80
2019-02-25T23:48:01.837Z,100120.20
2019-02-25T23:50:36.172Z,100129.92
2019-02-25T23:53:10.018Z,100138.83
2019-02-25T23:55:47.140Z,100138.58
2019-02-25T23:58:20.197Z,100147.17
